Orenge 7 — JL6148 — position and weather

sailwx.info

Track history (hours):
 
Tides and Currents Weather Stations Pressure Air Temp Water Temp Dewpoint Dewpoint Depression Visibility Wind Speed Wind Dir Waves Ship Positions

Orenge 7

Last reported at 2014-Dec-17 14:33 UTC. Time now 2014-Dec-18 16:25 UTC.
Position N 34°37' E 134°59'.

Length 163 m; draft 4.9 m.

Type: Passenger vessel. MMSI: 431500186.

Date/timePositionNaut miles runAvg speedWind from/ knotsBaromVisibWave heightAir tempDewpointWater temp
2014-Dec-17 14:33N 34°37' E 134°59'1717.4
2014-Dec-17 13:33N 34°37' E 135°20'5 5.0
2014-Dec-17 12:33N 34°37' E 135°26'0 0.0
2014-Dec-17 11:29N 34°37' E 135°26'0 0.0
2014-Dec-17 10:29N 34°37' E 135°26'0 0.0
2014-Dec-17 09:23N 34°37' E 135°26'0 0.0
2014-Dec-17 08:29N 34°37' E 135°26'0 0.0
2014-Dec-17 07:26N 34°37' E 135°26'0 0.0
2014-Dec-17 06:32N 34°37' E 135°26'0 0.0
2014-Dec-17 05:20N 34°37' E 135°26'0 0.0
2014-Dec-17 04:32N 34°37' E 135°26'0 0.0
2014-Dec-17 03:32N 34°37' E 135°26'0 0.0
2014-Dec-17 02:20N 34°37' E 135°26'0 0.0
2014-Dec-17 01:32N 34°37' E 135°26'0 0.0
2014-Dec-17 00:26N 34°37' E 135°26'0 0.0
2014-Dec-16 23:32N 34°37' E 135°26'0 0.0
2014-Dec-16 22:20N 34°37' E 135°26'0 0.0
2014-Dec-16 21:32N 34°37' E 135°26'6 6.2
2014-Dec-16 20:33N 34°36' E 135°19'1717.3
2014-Dec-16 19:33N 34°36' E 134°58'1 0.0
2014-Dec-15 14:33N 34°37' E 134°58'1817.8
2014-Dec-15 13:33N 34°37' E 135°19'6 5.4
2014-Dec-15 12:30N 34°37' E 135°26'0 0.0
2014-Dec-15 11:30N 34°37' E 135°26'0 0.0
2014-Dec-15 10:30N 34°37' E 135°26'0 0.0
2014-Dec-15 09:30N 34°37' E 135°26'0 0.0
2014-Dec-15 08:30N 34°37' E 135°26'0 0.0
2014-Dec-15 07:24N 34°37' E 135°26'0 0.0
2014-Dec-15 06:24N 34°37' E 135°26'0 0.0
2014-Dec-15 05:06N 34°37' E 135°26'0 0.0
2014-Dec-15 04:12N 34°37' E 135°26'0 0.0
2014-Dec-15 03:30N 34°37' E 135°26'0 0.0
2014-Dec-15 02:30N 34°37' E 135°26'0 0.0
2014-Dec-15 01:18N 34°37' E 135°26'0 0.0
2014-Dec-15 00:24N 34°37' E 135°26'0 0.0
2014-Dec-14 23:30N 34°37' E 135°26'0 0.0
2014-Dec-14 22:30N 34°37' E 135°26'0 0.0
2014-Dec-14 21:30N 34°37' E 135°26'5 5.4
2014-Dec-14 20:33N 34°36' E 135°20'1717.0
2014-Dec-14 19:33N 34°37' E 134°59'2 0.1
2014-Dec-13 14:33N 34°37' E 134°57'1818.4
2014-Dec-13 13:33N 34°37' E 135°19'6 5.5
2014-Dec-13 12:32N 34°37' E 135°26'0 0.0
2014-Dec-13 11:26N 34°37' E 135°26'0 0.0
2014-Dec-13 10:32N 34°37' E 135°26'0 0.0
2014-Dec-13 09:26N 34°37' E 135°26'0 0.0
2014-Dec-13 08:32N 34°37' E 135°26'0 0.0
2014-Dec-13 07:32N 34°37' E 135°26'0 0.0
2014-Dec-13 06:26N 34°37' E 135°26'0 0.0
2014-Dec-13 05:32N 34°37' E 135°26'0 0.0
2014-Dec-13 04:32N 34°37' E 135°26'0 0.0
2014-Dec-13 03:14N 34°37' E 135°26'0 0.0
2014-Dec-13 02:32N 34°37' E 135°26'0 0.0
2014-Dec-13 01:26N 34°37' E 135°26'0 0.0
2014-Dec-13 00:32N 34°37' E 135°26'0 0.0
2014-Dec-12 23:32N 34°37' E 135°26'0 0.0
2014-Dec-12 22:26N 34°37' E 135°26'0 0.0
2014-Dec-12 21:32N 34°37' E 135°26'5 4.7
2014-Dec-12 20:33N 34°36' E 135°20'1817.6
2014-Dec-12 19:33N 34°37' E 134°59'2019.2
2014-Dec-12 18:31N 34°29' E 134°37'18 0.6
2014-Dec-11 14:33N 34°37' E 134°56'1918.6
2014-Dec-11 13:33N 34°37' E 135°19'6 1.9
2014-Dec-11 10:28N 34°37' E 135°26'0 0.0
2014-Dec-11 08:22N 34°37' E 135°26'0 0.0
2014-Dec-11 07:16N 34°37' E 135°26'0 0.0
2014-Dec-11 05:22N 34°37' E 135°26'0 0.0
2014-Dec-11 04:22N 34°37' E 135°26'0 0.0
2014-Dec-11 03:22N 34°37' E 135°26'0 0.0
2014-Dec-11 02:28N 34°37' E 135°26'0 0.0
2014-Dec-11 01:28N 34°37' E 135°26'0 0.0
2014-Dec-11 00:28N 34°37' E 135°26'0 0.0
2014-Dec-10 23:28N 34°37' E 135°26'0 0.0
2014-Dec-10 22:22N 34°37' E 135°26'0 0.0
2014-Dec-10 21:28N 34°37' E 135°26'6 6.2
2014-Dec-10 20:33N 34°36' E 135°19'1717.3
2014-Dec-10 19:33N 34°37' E 134°58'2 0.1
2014-Dec-09 14:33N 34°36' E 134°55'1919.0
2014-Dec-09 13:33N 34°36' E 135°18'6 6.1
2014-Dec-09 12:33N 34°37' E 135°26'0 0.0
2014-Dec-09 10:15N 34°37' E 135°26'0 0.0
2014-Dec-09 09:33N 34°37' E 135°26'0 0.0
2014-Dec-09 08:33N 34°37' E 135°26'0 0.0
2014-Dec-09 07:33N 34°37' E 135°26'0 0.0
2014-Dec-09 06:33N 34°37' E 135°26'0 0.0
2014-Dec-09 05:33N 34°37' E 135°26'0 0.0
2014-Dec-09 04:33N 34°37' E 135°26'0 0.0
2014-Dec-09 03:33N 34°37' E 135°26'0 0.0
2014-Dec-09 02:27N 34°37' E 135°26'0 0.0
2014-Dec-09 01:33N 34°37' E 135°26'0 0.0
2014-Dec-09 00:33N 34°37' E 135°26'0 0.0
2014-Dec-08 23:15N 34°37' E 135°26'0 0.0
2014-Dec-08 22:33N 34°37' E 135°26'0 0.0
2014-Dec-08 21:33N 34°37' E 135°26'5 5.0
2014-Dec-08 20:33N 34°36' E 135°20'1817.8
2014-Dec-08 19:34N 34°37' E 134°58'1918.6
2014-Dec-08 18:32N 34°28' E 134°38'  
Track history (hours):
 
Tides and Currents Weather Stations Pressure Air Temp Water Temp Dewpoint Dewpoint Depression Visibility Wind Speed Wind Dir Waves Ship Positions

Orenge 7

Last reported at 2014-Dec-17 14:33 UTC. Time now 2014-Dec-18 16:25 UTC.
Position N 34°37' E 134°59'.

Length 163 m; draft 4.9 m.

Type: Passenger vessel. MMSI: 431500186.

Date/timePositionNaut miles runAvg speedWind from/ knotsBaromVisibWave heightAir tempDewpointWater temp
2014-Dec-17 14:33N 34°37' E 134°59'1717.4
2014-Dec-17 13:33N 34°37' E 135°20'5 5.0
2014-Dec-17 12:33N 34°37' E 135°26'0 0.0
2014-Dec-17 11:29N 34°37' E 135°26'0 0.0
2014-Dec-17 10:29N 34°37' E 135°26'0 0.0
2014-Dec-17 09:23N 34°37' E 135°26'0 0.0
2014-Dec-17 08:29N 34°37' E 135°26'0 0.0
2014-Dec-17 07:26N 34°37' E 135°26'0 0.0
2014-Dec-17 06:32N 34°37' E 135°26'0 0.0
2014-Dec-17 05:20N 34°37' E 135°26'0 0.0
2014-Dec-17 04:32N 34°37' E 135°26'0 0.0
2014-Dec-17 03:32N 34°37' E 135°26'0 0.0
2014-Dec-17 02:20N 34°37' E 135°26'0 0.0
2014-Dec-17 01:32N 34°37' E 135°26'0 0.0
2014-Dec-17 00:26N 34°37' E 135°26'0 0.0
2014-Dec-16 23:32N 34°37' E 135°26'0 0.0
2014-Dec-16 22:20N 34°37' E 135°26'0 0.0
2014-Dec-16 21:32N 34°37' E 135°26'6 6.2
2014-Dec-16 20:33N 34°36' E 135°19'1717.3
2014-Dec-16 19:33N 34°36' E 134°58'1 0.0
2014-Dec-15 14:33N 34°37' E 134°58'1817.8
2014-Dec-15 13:33N 34°37' E 135°19'6 5.4
2014-Dec-15 12:30N 34°37' E 135°26'0 0.0
2014-Dec-15 11:30N 34°37' E 135°26'0 0.0
2014-Dec-15 10:30N 34°37' E 135°26'0 0.0
2014-Dec-15 09:30N 34°37' E 135°26'0 0.0
2014-Dec-15 08:30N 34°37' E 135°26'0 0.0
2014-Dec-15 07:24N 34°37' E 135°26'0 0.0
2014-Dec-15 06:24N 34°37' E 135°26'0 0.0
2014-Dec-15 05:06N 34°37' E 135°26'0 0.0
2014-Dec-15 04:12N 34°37' E 135°26'0 0.0
2014-Dec-15 03:30N 34°37' E 135°26'0 0.0
2014-Dec-15 02:30N 34°37' E 135°26'0 0.0
2014-Dec-15 01:18N 34°37' E 135°26'0 0.0
2014-Dec-15 00:24N 34°37' E 135°26'0 0.0
2014-Dec-14 23:30N 34°37' E 135°26'0 0.0
2014-Dec-14 22:30N 34°37' E 135°26'0 0.0
2014-Dec-14 21:30N 34°37' E 135°26'5 5.4
2014-Dec-14 20:33N 34°36' E 135°20'1717.0
2014-Dec-14 19:33N 34°37' E 134°59'2 0.1
2014-Dec-13 14:33N 34°37' E 134°57'1818.4
2014-Dec-13 13:33N 34°37' E 135°19'6 5.5
2014-Dec-13 12:32N 34°37' E 135°26'0 0.0
2014-Dec-13 11:26N 34°37' E 135°26'0 0.0
2014-Dec-13 10:32N 34°37' E 135°26'0 0.0
2014-Dec-13 09:26N 34°37' E 135°26'0 0.0
2014-Dec-13 08:32N 34°37' E 135°26'0 0.0
2014-Dec-13 07:32N 34°37' E 135°26'0 0.0
2014-Dec-13 06:26N 34°37' E 135°26'0 0.0
2014-Dec-13 05:32N 34°37' E 135°26'0 0.0
2014-Dec-13 04:32N 34°37' E 135°26'0 0.0
2014-Dec-13 03:14N 34°37' E 135°26'0 0.0
2014-Dec-13 02:32N 34°37' E 135°26'0 0.0
2014-Dec-13 01:26N 34°37' E 135°26'0 0.0
2014-Dec-13 00:32N 34°37' E 135°26'0 0.0
2014-Dec-12 23:32N 34°37' E 135°26'0 0.0
2014-Dec-12 22:26N 34°37' E 135°26'0 0.0
2014-Dec-12 21:32N 34°37' E 135°26'5 4.7
2014-Dec-12 20:33N 34°36' E 135°20'1817.6
2014-Dec-12 19:33N 34°37' E 134°59'2019.2
2014-Dec-12 18:31N 34°29' E 134°37'18 0.6
2014-Dec-11 14:33N 34°37' E 134°56'1918.6
2014-Dec-11 13:33N 34°37' E 135°19'6 1.9
2014-Dec-11 10:28N 34°37' E 135°26'0 0.0
2014-Dec-11 08:22N 34°37' E 135°26'0 0.0
2014-Dec-11 07:16N 34°37' E 135°26'0 0.0
2014-Dec-11 05:22N 34°37' E 135°26'0 0.0
2014-Dec-11 04:22N 34°37' E 135°26'0 0.0
2014-Dec-11 03:22N 34°37' E 135°26'0 0.0
2014-Dec-11 02:28N 34°37' E 135°26'0 0.0
2014-Dec-11 01:28N 34°37' E 135°26'0 0.0
2014-Dec-11 00:28N 34°37' E 135°26'0 0.0
2014-Dec-10 23:28N 34°37' E 135°26'0 0.0
2014-Dec-10 22:22N 34°37' E 135°26'0 0.0
2014-Dec-10 21:28N 34°37' E 135°26'6 6.2
2014-Dec-10 20:33N 34°36' E 135°19'1717.3
2014-Dec-10 19:33N 34°37' E 134°58'2 0.1
2014-Dec-09 14:33N 34°36' E 134°55'1919.0
2014-Dec-09 13:33N 34°36' E 135°18'6 6.1
2014-Dec-09 12:33N 34°37' E 135°26'0 0.0
2014-Dec-09 10:15N 34°37' E 135°26'0 0.0
2014-Dec-09 09:33N 34°37' E 135°26'0 0.0
2014-Dec-09 08:33N 34°37' E 135°26'0 0.0
2014-Dec-09 07:33N 34°37' E 135°26'0 0.0
2014-Dec-09 06:33N 34°37' E 135°26'0 0.0
2014-Dec-09 05:33N 34°37' E 135°26'0 0.0
2014-Dec-09 04:33N 34°37' E 135°26'0 0.0
2014-Dec-09 03:33N 34°37' E 135°26'0 0.0
2014-Dec-09 02:27N 34°37' E 135°26'0 0.0
2014-Dec-09 01:33N 34°37' E 135°26'0 0.0
2014-Dec-09 00:33N 34°37' E 135°26'0 0.0
2014-Dec-08 23:15N 34°37' E 135°26'0 0.0
2014-Dec-08 22:33N 34°37' E 135°26'0 0.0
2014-Dec-08 21:33N 34°37' E 135°26'5 5.0
2014-Dec-08 20:33N 34°36' E 135°20'1817.8
2014-Dec-08 19:34N 34°37' E 134°58'1918.6
2014-Dec-08 18:32N 34°28' E 134°38'  

Dump ship's entire track history